Time;durP1;ratioP1;P1;durP2;ratioP2;P2;SDS_P1;SDS_P2;PMS_P1;PMS_P2;Temp;Humidity;BMP_temperature;BMP_pressure;BME280_temperature;BME280_humidity;BME280_pressure;Samples;Min_cycle;Max_cycle;Signal;HPM_P1;HPM_P2
2023/10/09 00:01:46;;;;;;;;;;;9.80;99.90;;;;;;5033803;28;19942;-93
2023/10/09 00:04:13;;;;;;;;;;;9.70;99.90;;;;;;5033846;28;20365;-92
2023/10/09 00:06:40;;;;;;;;;;;9.60;99.90;;;;;;5016573;28;20472;-92
2023/10/09 00:11:44;;;;;;;;;;;9.60;99.90;;;;;;5033723;28;19917;-93
2023/10/09 00:14:13;;;;;;;;;;;9.70;99.90;;;;;;5033032;28;19913;-93
2023/10/09 00:16:56;;;;;;;;;;;9.60;99.90;;;;;;5032357;28;19962;-92
2023/10/09 00:19:30;;;;;;;;;;;9.60;99.90;;;;;;5033689;28;19909;-92
2023/10/09 00:21:56;;;;;;;;;;;9.60;99.90;;;;;;5032898;28;19990;-91
2023/10/09 00:24:24;;;;;;;;;;;9.50;99.90;;;;;;5045553;28;20445;-91
2023/10/09 00:26:56;;;;;;;;;;;9.50;99.90;;;;;;5032156;28;19962;-91
2023/10/09 00:29:21;;;;;;;;;;;9.60;99.90;;;;;;5033222;28;19940;-92
2023/10/09 00:31:51;;;;;;;;;;;9.60;99.90;;;;;;5032427;28;19955;-92
2023/10/09 00:34:19;;;;;;;;;;;9.60;99.90;;;;;;5033700;28;20361;-90
2023/10/09 00:36:52;;;;;;;;;;;9.60;99.90;;;;;;5033066;28;19920;-91
2023/10/09 00:39:33;;;;;;;;;;;9.40;99.90;;;;;;5033371;28;19909;-91
2023/10/09 00:42:00;;;;;;;;;;;9.40;99.90;;;;;;5015378;28;19921;-90
2023/10/09 00:44:37;;;;;;;;;;;9.40;99.90;;;;;;5035898;28;19909;-91
2023/10/09 00:47:20;;;;;;;;;;;9.40;99.90;;;;;;5015284;28;19917;-91
2023/10/09 00:49:49;;;;;;;;;;;9.40;99.90;;;;;;5033291;28;20279;-91
2023/10/09 00:52:23;;;;;;;;;;;9.40;99.90;;;;;;5033235;28;19913;-92
2023/10/09 00:54:51;;;;;;;;;;;9.50;99.90;;;;;;5043027;28;19955;-90
2023/10/09 00:57:24;;;;;;;;;;;9.50;99.90;;;;;;5033350;28;20277;-91
2023/10/09 00:59:59;;;;;;;;;;;9.40;99.90;;;;;;5028861;28;20305;-92
2023/10/09 01:02:35;;;;;;;;;;;9.40;99.90;;;;;;5032768;28;20404;-90
2023/10/09 01:05:10;;;;;;;;;;;9.40;99.90;;;;;;5032606;28;19916;-92
2023/10/09 01:07:36;;;;;;;;;;;9.30;99.90;;;;;;5032932;28;20578;-92
2023/10/09 01:10:22;;;;;;;;;;;9.30;99.90;;;;;;5032386;28;19909;-91
2023/10/09 01:12:54;;;;;;;;;;;9.30;99.90;;;;;;5031709;28;20281;-90
2023/10/09 01:15:36;;;;;;;;;;;9.30;99.90;;;;;;5031836;28;21172;-90
2023/10/09 01:18:01;;;;;;;;;;;9.30;99.90;;;;;;5032571;28;20409;-90
2023/10/09 01:20:30;;;;;;;;;;;9.30;99.90;;;;;;5014915;28;19966;-90
2023/10/09 01:22:56;;;;;;;;;;;9.30;99.90;;;;;;5032848;28;19924;-91
2023/10/09 01:25:21;;;;;;;;;;;9.30;99.90;;;;;;5015002;28;19909;-91
2023/10/09 01:27:47;;;;;;;;;;;9.30;99.90;;;;;;5016734;28;19948;-90
2023/10/09 01:30:13;;;;;;;;;;;9.20;99.90;;;;;;5031672;28;20358;-90
2023/10/09 01:32:40;;;;;;;;;;;9.20;99.90;;;;;;5035538;28;19954;-90
2023/10/09 01:35:14;;;;;;;;;;;9.20;99.90;;;;;;5034562;28;19909;-90
2023/10/09 01:37:43;;;;;;;;;;;9.20;99.90;;;;;;5035727;28;20277;-90
2023/10/09 01:40:51;;;;;;;;;;;9.20;99.90;;;;;;5035534;28;19944;-90
2023/10/09 01:42:57;;;;;;;;;;;9.20;99.90;;;;;;5024184;28;20033;-90
2023/10/09 01:47:56;;;;;;;;;;;9.20;99.90;;;;;;5041157;28;19955;-90
2023/10/09 01:50:24;;;;;;;;;;;9.20;99.90;;;;;;5035399;28;19912;-91
2023/10/09 01:52:51;;;;;;;;;;;9.20;99.90;;;;;;5017988;28;20274;-89
2023/10/09 01:55:34;;;;;;;;;;;9.20;99.90;;;;;;5017376;28;19909;-90
2023/10/09 01:58:05;;;;;;;;;;;9.20;99.90;;;;;;5001967;28;19913;-90
2023/10/09 02:00:31;;;;;;;;;;;9.20;99.90;;;;;;5034211;28;19909;-89
2023/10/09 02:03:02;;;;;;;;;;;9.20;99.90;;;;;;5013968;28;19917;-89
2023/10/09 02:05:33;;;;;;;;;;;9.20;99.90;;;;;;5032790;28;19909;-89
2023/10/09 02:07:59;;;;;;;;;;;9.20;99.90;;;;;;5009258;28;19917;-90
2023/10/09 02:12:57;;;;;;;;;;;9.10;99.90;;;;;;5033404;28;19917;-89
2023/10/09 02:15:41;;;;;;;;;;;9.10;99.90;;;;;;5016815;28;19950;-89
2023/10/09 02:26:40;;;;;;;;;;;9.00;99.90;;;;;;5034819;28;19909;-89
2023/10/09 02:29:18;;;;;;;;;;;9.00;99.90;;;;;;5016737;28;19920;-90
2023/10/09 02:31:47;;;;;;;;;;;9.10;99.90;;;;;;5030734;28;19948;-88
2023/10/09 02:34:12;;;;;;;;;;;9.00;99.90;;;;;;5030797;28;19935;-89
2023/10/09 02:36:41;;;;;;;;;;;9.10;99.90;;;;;;5033913;28;19909;-89
2023/10/09 02:39:21;;;;;;;;;;;9.00;99.90;;;;;;5033494;28;19905;-88
2023/10/09 02:41:49;;;;;;;;;;;9.10;99.90;;;;;;5015925;28;19909;-88
2023/10/09 02:44:15;;;;;;;;;;;9.10;99.90;;;;;;5032842;28;19943;-87
2023/10/09 02:46:41;;;;;;;;;;;9.10;99.90;;;;;;5016674;28;19992;-89
2023/10/09 02:49:07;;;;;;;;;;;9.00;99.90;;;;;;5016258;28;20318;-90
2023/10/09 02:51:32;;;;;;;;;;;9.10;99.90;;;;;;5016482;28;19916;-90
2023/10/09 02:53:59;;;;;;;;;;;9.10;99.90;;;;;;5034747;28;19905;-89
2023/10/09 02:56:36;;;;;;;;;;;9.10;99.90;;;;;;5033848;28;20404;-89
2023/10/09 02:59:05;;;;;;;;;;;9.10;99.90;;;;;;5032846;28;20350;-89
2023/10/09 03:01:31;;;;;;;;;;;9.20;99.90;;;;;;5015703;28;19963;-89
2023/10/09 03:04:02;;;;;;;;;;;9.00;99.90;;;;;;5034201;28;19928;-89
2023/10/09 03:06:30;;;;;;;;;;;9.10;99.90;;;;;;5016269;28;19909;-89
2023/10/09 03:08:56;;;;;;;;;;;9.10;99.90;;;;;;5015158;28;19932;-88
2023/10/09 03:11:23;;;;;;;;;;;9.10;99.90;;;;;;5015995;28;20370;-89
2023/10/09 03:13:48;;;;;;;;;;;9.10;99.90;;;;;;5032944;28;19909;-89
2023/10/09 03:16:18;;;;;;;;;;;9.00;99.90;;;;;;5031808;28;19909;-89
2023/10/09 03:18:47;;;;;;;;;;;9.10;99.90;;;;;;5029975;28;19924;-90
2023/10/09 03:21:14;;;;;;;;;;;9.10;99.90;;;;;;5033765;28;19916;-89
2023/10/09 03:23:39;;;;;;;;;;;9.10;99.90;;;;;;5033135;28;20369;-88
2023/10/09 03:26:05;;;;;;;;;;;9.10;99.90;;;;;;5033566;28;19912;-91
2023/10/09 03:28:31;;;;;;;;;;;9.10;99.90;;;;;;5033955;28;19909;-90
2023/10/09 03:30:59;;;;;;;;;;;9.00;99.90;;;;;;5033573;28;19909;-91
2023/10/09 03:33:25;;;;;;;;;;;9.00;99.90;;;;;;5033181;28;19915;-90
2023/10/09 03:35:50;;;;;;;;;;;9.10;99.90;;;;;;5032615;28;19909;-89
2023/10/09 03:38:19;;;;;;;;;;;9.10;99.90;;;;;;5016642;28;19909;-90
2023/10/09 03:40:47;;;;;;;;;;;9.00;99.90;;;;;;5033747;28;19920;-89
2023/10/09 03:43:13;;;;;;;;;;;9.00;99.90;;;;;;5007931;28;19976;-90
2023/10/09 03:45:45;;;;;;;;;;;9.10;99.90;;;;;;5025190;28;20364;-91
2023/10/09 03:48:31;;;;;;;;;;;9.00;99.90;;;;;;5015499;28;19955;-89
2023/10/09 03:51:11;;;;;;;;;;;9.10;99.90;;;;;;5031990;28;19972;-89
2023/10/09 03:53:37;;;;;;;;;;;9.10;99.90;;;;;;5032865;28;19917;-90
2023/10/09 03:56:11;;;;;;;;;;;9.10;99.90;;;;;;5032374;28;19909;-90
2023/10/09 03:58:42;;;;;;;;;;;9.10;99.90;;;;;;5033411;28;20349;-91
2023/10/09 04:01:22;;;;;;;;;;;9.00;99.90;;;;;;5031569;28;19913;-90
2023/10/09 04:03:48;;;;;;;;;;;9.10;99.90;;;;;;5015479;28;20469;-90
2023/10/09 04:06:14;;;;;;;;;;;9.10;99.90;;;;;;5015824;28;19952;-91
2023/10/09 04:08:47;;;;;;;;;;;9.10;99.90;;;;;;5033807;28;19932;-90
2023/10/09 04:11:16;;;;;;;;;;;9.10;99.90;;;;;;4999539;28;19908;-90
2023/10/09 04:13:46;;;;;;;;;;;9.10;99.90;;;;;;5045744;22;19921;-91
2023/10/09 04:18:56;;;;;;;;;;;9.10;99.90;;;;;;5039179;28;19909;-91
2023/10/09 04:21:34;;;;;;;;;;;9.10;99.90;;;;;;5049352;28;20000;-92
2023/10/09 04:24:10;;;;;;;;;;;9.10;99.90;;;;;;5034726;28;20331;-91
2023/10/09 04:26:37;;;;;;;;;;;9.10;99.90;;;;;;5054077;28;19991;-90
2023/10/09 04:29:03;;;;;;;;;;;9.10;99.90;;;;;;5048236;28;19940;-92
2023/10/09 04:31:37;;;;;;;;;;;9.10;99.90;;;;;;5033917;28;19913;-89
2023/10/09 04:34:22;;;;;;;;;;;9.10;99.90;;;;;;5041831;28;19915;-90
2023/10/09 04:36:49;;;;;;;;;;;9.20;99.90;;;;;;5036663;28;19971;-91
2023/10/09 04:39:16;;;;;;;;;;;9.10;99.90;;;;;;5039147;28;19912;-91
2023/10/09 04:44:20;;;;;;;;;;;9.10;99.90;;;;;;5040542;28;20357;-93
2023/10/09 04:50:03;;;;;;;;;;;9.10;99.90;;;;;;5032974;28;19920;-90
2023/10/09 04:57:45;;;;;;;;;;;9.20;99.90;;;;;;5052647;28;19908;-90
2023/10/09 05:03:04;;;;;;;;;;;9.10;99.90;;;;;;5010029;28;20400;-90
2023/10/09 05:08:19;;;;;;;;;;;9.20;99.90;;;;;;5048431;28;19908;-91
2023/10/09 05:13:42;;;;;;;;;;;9.20;99.90;;;;;;5046856;28;19917;-90
2023/10/09 05:16:15;;;;;;;;;;;9.20;99.90;;;;;;5049730;28;19912;-91
2023/10/09 05:18:41;;;;;;;;;;;9.20;99.90;;;;;;5034004;28;19916;-94
2023/10/09 05:21:35;;;;;;;;;;;9.20;99.90;;;;;;5045081;28;19944;-93
2023/10/09 05:24:15;;;;;;;;;;;9.10;99.90;;;;;;5051822;28;19931;-92
2023/10/09 05:26:51;;;;;;;;;;;9.20;99.90;;;;;;5042849;28;19909;-92
2023/10/09 05:29:48;;;;;;;;;;;9.10;99.90;;;;;;5041614;28;19913;-94
2023/10/09 05:37:32;;;;;;;;;;;9.10;99.90;;;;;;5053502;28;19916;-93
2023/10/09 05:42:42;;;;;;;;;;;9.20;99.90;;;;;;5044856;28;19923;-93
2023/10/09 05:46:07;;;;;;;;;;;9.10;99.90;;;;;;5037766;28;19909;-91
2023/10/09 05:47:57;;;;;;;;;;;9.10;99.90;;;;;;5048250;28;19909;-94
2023/10/09 05:56:28;;;;;;;;;;;9.20;99.90;;;;;;5057790;28;19966;-94
2023/10/09 06:06:36;;;;;;;;;;;9.30;99.90;;;;;;5037445;28;20429;-92
2023/10/09 06:11:41;;;;;;;;;;;9.30;99.90;;;;;;5056882;28;19905;-95
2023/10/09 06:24:41;;;;;;;;;;;9.40;99.90;;;;;;5054097;28;19975;-90
2023/10/09 06:29:36;;;;;;;;;;;9.40;99.90;;;;;;5051871;28;20341;-89
2023/10/09 06:35:15;;;;;;;;;;;9.50;99.90;;;;;;5045216;28;19909;-89
2023/10/09 06:43:09;;;;;;;;;;;9.50;99.90;;;;;;5048181;28;19921;-90
2023/10/09 06:45:44;;;;;;;;;;;9.60;99.90;;;;;;5049119;28;19917;-92
2023/10/09 06:48:40;;;;;;;;;;;9.60;99.90;;;;;;5031703;28;19956;-91
2023/10/09 06:50:58;;;;;;;;;;;9.60;99.90;;;;;;5040978;28;20035;-93
2023/10/09 06:53:28;;;;;;;;;;;9.50;99.90;;;;;;5040079;28;19919;-93
2023/10/09 06:56:05;;;;;;;;;;;9.50;99.90;;;;;;5043209;28;20636;-92
2023/10/09 06:58:41;;;;;;;;;;;9.50;99.90;;;;;;5041607;28;19924;-89
2023/10/09 07:01:28;;;;;;;;;;;9.50;99.90;;;;;;5045237;28;20658;-88
2023/10/09 07:03:59;;;;;;;;;;;9.50;99.90;;;;;;5044210;28;20364;-91
2023/10/09 07:06:48;;;;;;;;;;;9.60;99.90;;;;;;5035946;28;19995;-88
2023/10/09 07:16:57;;;;;;;;;;;9.60;99.90;;;;;;5049887;28;19932;-92
2023/10/09 07:19:57;;;;;;;;;;;9.70;99.90;;;;;;5051358;28;19915;-94
2023/10/09 07:24:49;;;;;;;;;;;9.70;99.90;;;;;;5049134;28;20356;-93
2023/10/09 07:27:43;;;;;;;;;;;9.70;99.90;;;;;;5045955;28;19925;-93
2023/10/09 07:30:35;;;;;;;;;;;9.70;99.90;;;;;;5046981;28;19923;-91
2023/10/09 07:32:54;;;;;;;;;;;9.70;99.90;;;;;;5038429;28;19913;-91
2023/10/09 07:35:46;;;;;;;;;;;9.70;99.90;;;;;;5040534;28;20395;-92
2023/10/09 07:38:08;;;;;;;;;;;9.70;99.90;;;;;;5043758;28;19909;-92
2023/10/09 07:43:26;;;;;;;;;;;9.70;99.90;;;;;;5039859;28;19920;-91
2023/10/09 07:48:26;;;;;;;;;;;9.70;99.90;;;;;;5047460;28;20272;-89
2023/10/09 07:50:57;;;;;;;;;;;9.70;99.90;;;;;;5051935;28;19992;-91
2023/10/09 07:53:26;;;;;;;;;;;9.70;99.90;;;;;;5043404;28;19916;-90
2023/10/09 07:55:56;;;;;;;;;;;9.70;99.90;;;;;;5048157;28;19939;-89
2023/10/09 07:58:25;;;;;;;;;;;9.70;99.90;;;;;;5046164;28;19951;-88
2023/10/09 08:01:07;;;;;;;;;;;9.70;99.90;;;;;;5015727;28;20004;-90
2023/10/09 08:03:36;;;;;;;;;;;9.70;99.90;;;;;;5033898;28;19916;-91
2023/10/09 08:17:05;;;;;;;;;;;9.90;99.90;;;;;;5033580;28;19916;-92
2023/10/09 08:19:34;;;;;;;;;;;10.00;99.90;;;;;;5037082;28;19904;-90
2023/10/09 08:22:37;;;;;;;;;;;10.10;99.90;;;;;;5053012;28;19908;-89
2023/10/09 08:25:03;;;;;;;;;;;10.10;99.90;;;;;;5052571;28;20019;-92
2023/10/09 08:33:05;;;;;;;;;;;10.20;99.90;;;;;;5054571;28;19909;-94
2023/10/09 08:35:35;;;;;;;;;;;10.20;99.90;;;;;;5055241;28;19987;-94
2023/10/09 08:38:10;;;;;;;;;;;10.10;99.90;;;;;;5053380;28;19975;-92
2023/10/09 08:40:39;;;;;;;;;;;10.00;99.90;;;;;;5049302;28;19909;-95
2023/10/09 08:43:09;;;;;;;;;;;10.00;99.90;;;;;;5016420;28;19961;-93
2023/10/09 08:45:39;;;;;;;;;;;10.00;99.90;;;;;;5038758;28;19920;-92
2023/10/09 08:48:06;;;;;;;;;;;10.00;99.90;;;;;;5020706;28;20008;-91
2023/10/09 08:50:32;;;;;;;;;;;10.10;99.90;;;;;;5035603;28;19905;-93
2023/10/09 08:52:57;;;;;;;;;;;10.10;99.90;;;;;;5042323;28;19908;-95
2023/10/09 08:55:23;;;;;;;;;;;10.00;99.90;;;;;;5047030;28;19909;-94
2023/10/09 08:57:52;;;;;;;;;;;9.90;99.90;;;;;;5042842;28;19955;-93
2023/10/09 09:00:23;;;;;;;;;;;9.90;99.90;;;;;;5049076;28;19916;-93
2023/10/09 09:02:55;;;;;;;;;;;9.90;99.90;;;;;;5028495;28;19921;-89
2023/10/09 09:05:21;;;;;;;;;;;10.00;99.90;;;;;;5035306;28;19952;-89
2023/10/09 09:07:47;;;;;;;;;;;10.00;99.90;;;;;;5038786;28;19944;-90
2023/10/09 09:10:23;;;;;;;;;;;10.00;99.90;;;;;;5046849;28;19909;-90
2023/10/09 09:13:00;;;;;;;;;;;10.00;99.90;;;;;;5045923;28;19952;-91
2023/10/09 09:15:27;;;;;;;;;;;9.90;99.90;;;;;;5049101;28;19928;-87
2023/10/09 09:18:05;;;;;;;;;;;10.00;99.90;;;;;;5045015;28;19909;-88
2023/10/09 09:20:40;;;;;;;;;;;10.00;99.90;;;;;;5036620;28;20279;-90
2023/10/09 09:23:09;;;;;;;;;;;10.00;99.90;;;;;;5046917;28;19921;-89
2023/10/09 09:25:59;;;;;;;;;;;10.00;99.90;;;;;;5049666;28;19963;-88
2023/10/09 09:28:26;;;;;;;;;;;10.00;99.90;;;;;;5038613;28;20008;-89
2023/10/09 09:31:07;;;;;;;;;;;10.00;99.90;;;;;;5041320;28;19909;-90
2023/10/09 09:33:43;;;;;;;;;;;10.00;99.90;;;;;;5047228;28;19978;-90
2023/10/09 09:36:11;;;;;;;;;;;10.10;99.90;;;;;;5021356;28;19956;-86
2023/10/09 09:38:50;;;;;;;;;;;10.00;99.90;;;;;;5037494;28;20316;-88
2023/10/09 09:41:24;;;;;;;;;;;10.10;99.90;;;;;;5042666;28;19908;-86
2023/10/09 09:43:57;;;;;;;;;;;10.20;99.90;;;;;;5043923;28;19927;-89
2023/10/09 09:46:32;;;;;;;;;;;10.20;99.90;;;;;;5040474;28;19916;-89
2023/10/09 09:49:00;;;;;;;;;;;10.20;99.90;;;;;;5044765;28;19947;-89
2023/10/09 09:51:28;;;;;;;;;;;10.20;99.90;;;;;;5029958;28;19909;-88
2023/10/09 09:53:54;;;;;;;;;;;10.20;99.90;;;;;;5030787;28;19919;-87
2023/10/09 09:56:21;;;;;;;;;;;10.30;99.90;;;;;;5029910;28;19913;-87
2023/10/09 09:58:53;;;;;;;;;;;10.20;99.90;;;;;;5044703;28;19909;-89
2023/10/09 10:01:24;;;;;;;;;;;10.20;99.90;;;;;;5052597;28;20027;-87
2023/10/09 10:04:13;;;;;;;;;;;10.20;99.90;;;;;;5042889;28;19921;-85
2023/10/09 10:06:42;;;;;;;;;;;10.30;99.90;;;;;;5038483;28;19921;-86
2023/10/09 10:09:07;;;;;;;;;;;10.40;99.90;;;;;;5022098;28;19920;-86
2023/10/09 10:11:44;;;;;;;;;;;10.40;99.90;;;;;;5041573;28;19912;-86
2023/10/09 10:14:11;;;;;;;;;;;10.40;99.90;;;;;;5046510;28;20409;-84
2023/10/09 10:17:21;;;;;;;;;;;10.60;99.90;;;;;;5045770;28;19908;-87
2023/10/09 10:20:41;;;;;;;;;;;10.70;99.90;;;;;;4996009;28;19995;-87
2023/10/09 10:23:17;;;;;;;;;;;10.80;99.90;;;;;;5048846;28;20014;-85
2023/10/09 10:25:48;;;;;;;;;;;10.80;99.90;;;;;;5019601;28;19916;-86
2023/10/09 10:28:28;;;;;;;;;;;10.80;99.90;;;;;;5050668;28;19912;-86
2023/10/09 10:30:54;;;;;;;;;;;10.80;99.90;;;;;;5045915;28;19912;-85
2023/10/09 10:33:22;;;;;;;;;;;10.70;99.90;;;;;;5053139;28;19909;-87
2023/10/09 10:35:52;;;;;;;;;;;10.60;99.90;;;;;;5051045;28;19913;-85
2023/10/09 10:38:42;;;;;;;;;;;10.60;99.90;;;;;;5036294;28;20063;-86
2023/10/09 10:41:19;;;;;;;;;;;10.50;99.90;;;;;;5021821;28;20589;-85
2023/10/09 10:43:48;;;;;;;;;;;10.50;99.90;;;;;;5030627;28;20336;-85
2023/10/09 10:46:23;;;;;;;;;;;10.50;99.90;;;;;;5023041;28;19913;-86
2023/10/09 10:48:59;;;;;;;;;;;10.60;99.90;;;;;;5046826;28;20412;-86
2023/10/09 10:51:34;;;;;;;;;;;10.50;99.90;;;;;;5045551;28;19962;-87
2023/10/09 10:54:26;;;;;;;;;;;10.60;99.90;;;;;;5041428;28;19913;-85
2023/10/09 10:56:51;;;;;;;;;;;10.60;99.90;;;;;;5037620;28;20361;-84
2023/10/09 10:59:22;;;;;;;;;;;10.70;99.90;;;;;;5015023;28;19908;-84
2023/10/09 11:07:00;;;;;;;;;;;10.70;99.90;;;;;;5040366;28;19913;-84
2023/10/09 11:09:35;;;;;;;;;;;10.80;99.90;;;;;;5037889;28;19945;-84
2023/10/09 11:12:12;;;;;;;;;;;10.80;99.90;;;;;;5046278;28;19935;-82
2023/10/09 11:14:46;;;;;;;;;;;10.80;99.90;;;;;;5031987;28;19916;-84
2023/10/09 11:17:23;;;;;;;;;;;10.80;99.90;;;;;;5017099;28;20007;-84
2023/10/09 11:19:52;;;;;;;;;;;10.80;99.90;;;;;;5045709;28;20338;-84
2023/10/09 11:22:28;;;;;;;;;;;10.80;99.90;;;;;;5031598;28;20332;-85
2023/10/09 11:25:11;;;;;;;;;;;10.80;99.90;;;;;;5031686;28;19970;-86
2023/10/09 11:27:39;;;;;;;;;;;10.90;99.90;;;;;;5047323;28;19915;-86
2023/10/09 11:30:11;;;;;;;;;;;10.90;99.90;;;;;;5041365;28;19912;-89
2023/10/09 11:32:38;;;;;;;;;;;10.90;99.90;;;;;;5043009;28;19909;-87
2023/10/09 11:35:27;;;;;;;;;;;10.90;99.90;;;;;;5044273;28;19920;-84
2023/10/09 11:37:56;;;;;;;;;;;10.90;99.90;;;;;;5044357;28;19912;-87
2023/10/09 11:40:33;;;;;;;;;;;10.90;99.90;;;;;;5033237;28;19945;-86
2023/10/09 11:43:03;;;;;;;;;;;10.90;99.90;;;;;;5033762;28;19920;-84
2023/10/09 11:45:29;;;;;;;;;;;10.90;99.90;;;;;;5024213;28;19919;-85
2023/10/09 11:47:59;;;;;;;;;;;11.00;99.90;;;;;;5051469;28;19995;-85
2023/10/09 11:55:49;;;;;;;;;;;10.90;99.90;;;;;;5040719;28;20641;-85
2023/10/09 11:58:24;;;;;;;;;;;10.90;99.90;;;;;;5015098;28;19917;-87
2023/10/09 12:00:56;;;;;;;;;;;11.00;99.90;;;;;;5018383;28;19913;-84
2023/10/09 12:03:23;;;;;;;;;;;11.00;99.90;;;;;;5034423;28;20274;-86
2023/10/09 12:05:49;;;;;;;;;;;10.90;99.90;;;;;;5035674;28;19924;-86
2023/10/09 12:08:15;;;;;;;;;;;11.00;99.90;;;;;;5012299;28;19913;-87
2023/10/09 12:10:41;;;;;;;;;;;11.00;99.90;;;;;;5044853;28;19909;-85
2023/10/09 12:13:07;;;;;;;;;;;10.90;99.90;;;;;;5034303;28;20395;-88
2023/10/09 12:15:39;;;;;;;;;;;10.90;99.90;;;;;;5032932;28;19923;-85
2023/10/09 12:18:06;;;;;;;;;;;10.90;99.90;;;;;;5047700;28;19962;-84
2023/10/09 12:20:32;;;;;;;;;;;10.90;99.90;;;;;;5030233;28;19913;-86
2023/10/09 12:22:59;;;;;;;;;;;10.90;99.90;;;;;;5027998;28;19913;-88
2023/10/09 12:25:31;;;;;;;;;;;10.90;99.90;;;;;;5046192;28;19924;-90
2023/10/09 12:27:57;;;;;;;;;;;11.00;99.90;;;;;;5039084;28;19908;-89
2023/10/09 12:30:26;;;;;;;;;;;11.00;99.90;;;;;;5025493;28;20013;-87
2023/10/09 12:32:57;;;;;;;;;;;11.10;99.90;;;;;;5050536;28;20288;-85
2023/10/09 12:35:26;;;;;;;;;;;11.30;99.90;;;;;;5045504;28;19963;-84
2023/10/09 12:37:54;;;;;;;;;;;11.40;99.90;;;;;;5046503;28;20027;-84
2023/10/09 12:40:29;;;;;;;;;;;11.60;99.90;;;;;;5036768;28;20289;-84
2023/10/09 12:42:55;;;;;;;;;;;11.70;99.90;;;;;;5019452;28;20360;-85
2023/10/09 12:45:26;;;;;;;;;;;11.60;99.90;;;;;;5020084;28;20008;-84
2023/10/09 12:47:52;;;;;;;;;;;11.60;99.90;;;;;;5041156;28;19909;-86
2023/10/09 12:50:27;;;;;;;;;;;11.60;99.90;;;;;;5037359;28;19912;-88
2023/10/09 12:52:56;;;;;;;;;;;11.60;99.90;;;;;;5046353;28;19931;-88
2023/10/09 12:55:31;;;;;;;;;;;11.50;99.90;;;;;;5038741;28;19909;-88
2023/10/09 12:58:06;;;;;;;;;;;11.50;99.90;;;;;;5035890;28;20254;-89
2023/10/09 13:00:32;;;;;;;;;;;11.50;99.90;;;;;;5044409;28;20272;-88
2023/10/09 13:03:00;;;;;;;;;;;11.50;99.90;;;;;;5039352;28;20074;-89
2023/10/09 13:05:26;;;;;;;;;;;11.50;99.90;;;;;;5036618;28;19915;-90
2023/10/09 13:07:58;;;;;;;;;;;11.40;99.90;;;;;;5040515;28;19909;-90
2023/10/09 13:10:24;;;;;;;;;;;11.50;99.90;;;;;;5042311;28;19941;-88
2023/10/09 13:12:55;;;;;;;;;;;11.50;99.90;;;;;;5013436;28;19995;-85
2023/10/09 13:15:21;;;;;;;;;;;11.60;99.90;;;;;;5045741;28;19982;-87
2023/10/09 13:17:47;;;;;;;;;;;11.60;99.90;;;;;;5042117;28;19909;-88
2023/10/09 13:20:12;;;;;;;;;;;11.60;99.90;;;;;;5021546;28;19915;-88
2023/10/09 13:22:42;;;;;;;;;;;11.70;99.90;;;;;;5026458;28;20327;-88
2023/10/09 13:25:14;;;;;;;;;;;11.70;99.90;;;;;;5041804;28;19968;-85
2023/10/09 13:27:40;;;;;;;;;;;11.60;99.90;;;;;;5045625;28;19955;-85
2023/10/09 13:30:07;;;;;;;;;;;11.70;99.90;;;;;;5041112;28;19959;-85
2023/10/09 13:32:36;;;;;;;;;;;11.70;99.90;;;;;;5034905;28;19909;-85
2023/10/09 13:35:03;;;;;;;;;;;11.80;99.90;;;;;;5047054;28;19909;-87
2023/10/09 13:37:30;;;;;;;;;;;11.90;99.90;;;;;;5050730;28;19917;-88
2023/10/09 13:39:57;;;;;;;;;;;11.80;99.90;;;;;;5052356;28;19917;-90
2023/10/09 13:42:25;;;;;;;;;;;11.70;99.90;;;;;;5048477;28;19909;-90
2023/10/09 13:44:53;;;;;;;;;;;11.60;99.90;;;;;;5027045;28;19991;-88
2023/10/09 13:47:20;;;;;;;;;;;11.70;99.90;;;;;;5048494;28;19912;-89
2023/10/09 13:49:50;;;;;;;;;;;11.70;99.90;;;;;;5031887;28;20675;-88
2023/10/09 13:52:18;;;;;;;;;;;11.70;99.90;;;;;;5048174;28;19938;-88
2023/10/09 13:54:47;;;;;;;;;;;11.70;99.90;;;;;;5050417;28;19920;-88
2023/10/09 13:57:14;;;;;;;;;;;11.70;99.90;;;;;;5032708;28;20293;-88
2023/10/09 13:59:48;;;;;;;;;;;11.70;99.90;;;;;;5045621;28;19919;-88
2023/10/09 14:02:17;;;;;;;;;;;11.70;99.90;;;;;;5027925;28;21814;-87
2023/10/09 14:04:43;;;;;;;;;;;11.60;99.90;;;;;;5048371;28;20373;-89
2023/10/09 14:07:09;;;;;;;;;;;11.60;99.90;;;;;;5045661;28;19912;-87
2023/10/09 14:12:10;;;;;;;;;;;11.60;99.90;;;;;;5043948;28;19921;-88
2023/10/09 14:14:48;;;;;;;;;;;11.60;99.90;;;;;;5046327;28;19921;-90
2023/10/09 14:17:23;;;;;;;;;;;11.60;99.90;;;;;;5047698;28;19916;-89
2023/10/09 14:19:49;;;;;;;;;;;11.60;99.90;;;;;;5051308;28;19913;-90
2023/10/09 14:22:16;;;;;;;;;;;11.60;99.90;;;;;;5044119;28;20370;-89
2023/10/09 14:24:44;;;;;;;;;;;11.60;99.90;;;;;;5049705;28;19913;-89
2023/10/09 14:27:19;;;;;;;;;;;11.50;99.90;;;;;;5048050;28;19935;-88
2023/10/09 14:29:45;;;;;;;;;;;11.50;99.90;;;;;;5040244;28;19923;-87
2023/10/09 14:32:14;;;;;;;;;;;11.50;99.90;;;;;;5048782;28;20288;-86
2023/10/09 14:34:49;;;;;;;;;;;11.50;99.90;;;;;;5045502;28;19924;-90
2023/10/09 14:37:15;;;;;;;;;;;11.60;99.90;;;;;;5036922;28;19948;-87
2023/10/09 14:39:41;;;;;;;;;;;11.60;99.90;;;;;;5051032;28;19908;-87
2023/10/09 14:42:09;;;;;;;;;;;11.60;99.90;;;;;;5048287;28;19908;-87
2023/10/09 14:44:37;;;;;;;;;;;11.60;99.90;;;;;;5037255;28;20015;-88
2023/10/09 14:47:05;;;;;;;;;;;11.60;99.90;;;;;;5041458;28;19991;-87
2023/10/09 14:49:34;;;;;;;;;;;11.60;99.90;;;;;;5051328;28;19905;-88
2023/10/09 14:52:00;;;;;;;;;;;11.60;99.90;;;;;;5041844;28;19913;-86
2023/10/09 14:54:27;;;;;;;;;;;11.60;99.90;;;;;;5038286;28;19991;-87
2023/10/09 14:56:54;;;;;;;;;;;11.60;99.90;;;;;;5028147;28;20305;-88
2023/10/09 14:59:22;;;;;;;;;;;11.70;99.90;;;;;;5050590;28;19913;-88
2023/10/09 15:01:49;;;;;;;;;;;11.60;99.90;;;;;;5046099;28;19916;-85
2023/10/09 15:04:15;;;;;;;;;;;11.50;99.90;;;;;;5043869;28;19931;-89
2023/10/09 15:06:40;;;;;;;;;;;11.60;99.90;;;;;;5035915;28;20003;-88
2023/10/09 15:09:09;;;;;;;;;;;11.60;99.90;;;;;;5034932;28;19909;-87
2023/10/09 15:11:38;;;;;;;;;;;11.60;99.90;;;;;;5032968;28;19922;-87
2023/10/09 15:14:05;;;;;;;;;;;11.60;99.90;;;;;;5040993;28;19927;-86
2023/10/09 15:16:31;;;;;;;;;;;11.60;99.90;;;;;;5039958;28;19917;-87
2023/10/09 15:18:57;;;;;;;;;;;11.50;99.90;;;;;;5046527;28;19913;-90
2023/10/09 15:21:26;;;;;;;;;;;11.60;99.90;;;;;;5050854;28;19908;-86
2023/10/09 15:23:55;;;;;;;;;;;11.60;99.90;;;;;;5027276;28;20293;-88
2023/10/09 15:26:21;;;;;;;;;;;11.60;99.90;;;;;;5038711;28;20000;-86
2023/10/09 15:28:49;;;;;;;;;;;11.70;99.90;;;;;;5023904;28;19940;-87
2023/10/09 15:31:16;;;;;;;;;;;11.70;99.90;;;;;;5049722;28;19940;-88
2023/10/09 15:33:42;;;;;;;;;;;11.60;99.90;;;;;;5037466;28;19921;-88
2023/10/09 15:36:12;;;;;;;;;;;11.60;99.90;;;;;;5046324;28;19917;-88
2023/10/09 15:38:37;;;;;;;;;;;11.60;99.90;;;;;;5046821;28;20367;-87
2023/10/09 15:41:05;;;;;;;;;;;11.60;99.90;;;;;;5022444;28;19956;-88
2023/10/09 15:43:33;;;;;;;;;;;11.60;99.90;;;;;;5041372;28;19939;-88
2023/10/09 15:45:59;;;;;;;;;;;11.60;99.90;;;;;;5048060;28;19920;-89
2023/10/09 15:48:24;;;;;;;;;;;11.60;99.90;;;;;;5038429;28;19928;-89
2023/10/09 15:50:51;;;;;;;;;;;11.60;99.90;;;;;;5037029;28;19911;-89
2023/10/09 15:53:17;;;;;;;;;;;11.60;99.90;;;;;;5042446;28;19954;-90
2023/10/09 15:55:43;;;;;;;;;;;11.70;99.90;;;;;;5050046;28;19912;-89
2023/10/09 15:58:09;;;;;;;;;;;11.70;99.90;;;;;;5046074;28;20041;-90
2023/10/09 16:00:34;;;;;;;;;;;11.70;99.90;;;;;;5055113;28;20014;-91
2023/10/09 16:03:00;;;;;;;;;;;11.60;99.90;;;;;;5028822;28;19964;-90
2023/10/09 16:05:26;;;;;;;;;;;11.70;99.90;;;;;;5034115;28;19913;-88
2023/10/09 16:07:55;;;;;;;;;;;11.70;99.90;;;;;;5049089;28;19961;-88
2023/10/09 16:10:21;;;;;;;;;;;11.70;99.90;;;;;;5051803;28;19916;-88
2023/10/09 16:12:47;;;;;;;;;;;11.70;99.90;;;;;;5035505;28;19917;-87
2023/10/09 16:15:14;;;;;;;;;;;11.70;99.90;;;;;;5038765;28;20479;-89
2023/10/09 16:17:42;;;;;;;;;;;11.60;99.90;;;;;;5032331;28;19913;-88
2023/10/09 16:20:13;;;;;;;;;;;11.60;99.90;;;;;;5036835;28;20281;-87
2023/10/09 16:22:39;;;;;;;;;;;11.60;99.90;;;;;;5038230;28;19955;-90
2023/10/09 16:25:13;;;;;;;;;;;11.60;99.90;;;;;;5043003;28;20369;-91
2023/10/09 16:27:39;;;;;;;;;;;11.60;99.90;;;;;;5045681;28;19915;-95
2023/10/09 16:30:05;;;;;;;;;;;11.60;99.90;;;;;;5048404;28;19924;-94
2023/10/09 16:32:31;;;;;;;;;;;11.60;99.90;;;;;;5029372;28;19917;-90
2023/10/09 16:35:00;;;;;;;;;;;11.60;99.90;;;;;;5028508;28;19909;-92
2023/10/09 16:37:26;;;;;;;;;;;11.60;99.90;;;;;;5048994;28;19913;-90
2023/10/09 16:39:53;;;;;;;;;;;11.60;99.90;;;;;;5035849;28;19913;-90
2023/10/09 16:42:23;;;;;;;;;;;11.60;99.90;;;;;;5044691;28;20610;-90
2023/10/09 16:44:49;;;;;;;;;;;11.60;99.90;;;;;;5037502;28;19984;-92
2023/10/09 16:47:16;;;;;;;;;;;11.60;99.90;;;;;;5039021;28;20004;-87
2023/10/09 16:49:42;;;;;;;;;;;11.60;99.90;;;;;;5044458;28;19909;-88
2023/10/09 16:52:11;;;;;;;;;;;11.60;99.90;;;;;;5045373;28;19974;-89
2023/10/09 16:54:37;;;;;;;;;;;11.60;99.90;;;;;;5044443;28;20013;-86